الصفحة الرئيسية
METAR-TAF:

METAR-TAF

مطار :

مطار طانطان الشاطئ الأبيض

طانطان, المغرب

دائرة عرض: 28-26-54N, خط طول: 11-09-41W, ارتفاع: 199 متر

مراقبة الطقس الحالي

تاريخ ووقت الإصدار 1ساعة و 3 دقيقة قبل الساعة 08:00UTC
ريح 3 عقدة من الجنوب الغربي
درجة الحرارة 15°درجة مئوية
الرطوبة 82%
ضغط 1012 hPa
الرؤية: 6000 متر
غيوم مفككة على ارتفاع 1600 قدم

METAR: GMAT 040800Z 22003KT 6000 BKN016 15/12 Q1012 NOSIG

زمن: 10:03 (09:03 UTC)


TAF: مفقودة

أرصاد الطقس والتوقعات من أكثر من 4000 مطار (تقارير الطقس للمطار METAR والتنبؤ بالطقس بالمطارTAF).

المحطات المتاحة هي النقط الصفراء والحمراء على الخريطة.

حرك المؤشر فوق النقطة لمعرفة اسم المحطة.

ثم انقر لمعرفة أرصاد وتوقعات الطقس.

لتغيير الخارطة: اضغط على الأزرار الخضراء مع رمز الصليب الأسود للتكبير. على الزر الأخضر مع شرطة للتصغير، أو على الأسهم الخضراء للخرائط المجاورة.


METAR-TAF: